Genmar Spyridon — V7BY9 — position and weather

sailwx.info

Track history (hours):
 
Tides and Currents Weather Stations Pressure Air Temp Water Temp Dewpoint Dewpoint Depression Visibility Wind Speed Wind Dir Waves Ship Positions

Genmar Spyridon

Last reported at 2014-Jul-31 16:12 UTC. Time now 2014-Aug-01 09:59 UTC.
Position N 37°31' W 001°01'.

Length 274 m; draft 11.2 m.

Type: Tanker. MMSI: 538001404.

Date/timePositionNaut miles runAvg speedWind from/ knotsBaromVisibWave heightAir tempDewpointWater temp
2014-Jul-31 16:12N 37°31' W 001°01'812.0
2014-Jul-31 15:33N 37°23' W 001°01'1312.9
2014-Jul-31 14:33N 37°10' W 001°03'1312.5
2014-Jul-31 13:30N 36°60' W 001°13'1613.5
2014-Jul-31 12:19N 36°49' W 001°29'1613.2
2014-Jul-31 11:08N 36°39' W 001°43'4612.5
2014-Jul-31 07:28N 36°19' W 002°35'13713.9
2014-Jul-30 21:33N 35°58' W 005°23'5914.6
2014-Jul-30 17:30N 35°57' W 006°36'1313.3
2014-Jul-30 16:33N 35°58' W 006°51'2713.2
2014-Jul-30 14:32N 36°01' W 007°24'1413.5
2014-Jul-30 13:30N 36°02' W 007°41'1313.6
2014-Jul-30 12:33N 36°06' W 007°56'1913.0
2014-Jul-30 11:05N 36°13' W 008°18'713.5
2014-Jul-30 10:33N 36°16' W 008°27'1313.1
2014-Jul-30 09:33N 36°20' W 008°42'1312.7
2014-Jul-30 08:33N 36°24' W 008°57'1313.1
2014-Jul-30 07:33N 36°28' W 009°12'1312.8
2014-Jul-30 06:33N 36°34' W 009°26'1413.6
2014-Jul-30 05:33N 36°45' W 009°37'1313.1
2014-Jul-30 04:33N 36°58' W 009°42'1313.4
2014-Jul-30 03:33N 37°11' W 009°45'1313.5
2014-Jul-30 02:33N 37°24' W 009°49'1313.3
2014-Jul-30 01:34N 37°37' W 009°53'1313.0
2014-Jul-30 00:33N 37°49' W 009°57'1312.9
2014-Jul-29 23:33N 38°02' W 010°00'1413.0
2014-Jul-29 22:27N 38°16' W 010°04'1213.3
2014-Jul-29 21:33N 38°28' W 010°08'4012.9
2014-Jul-29 18:27N 39°08' W 010°11'1313.0
2014-Jul-29 17:26N 39°21' W 010°12'402 9.0
2014-Jul-27 20:32N 43°33' W 003°14'1212.2
2014-Jul-27 19:33N 43°23' W 003°05'1 0.9
2014-Jul-27 18:33N 43°22' W 003°06'0 0.0
2014-Jul-27 17:33N 43°22' W 003°06'0 0.0
2014-Jul-27 16:33N 43°22' W 003°06'0 0.0
2014-Jul-27 15:33N 43°22' W 003°06'2 0.1
2014-Jul-26 10:33N 43°24' W 003°07'0 0.1
2014-Jul-26 09:33N 43°24' W 003°07'0 0.0
2014-Jul-26 08:31N 43°24' W 003°07'0 0.0
2014-Jul-26 07:31N 43°24' W 003°07'0 0.2
2014-Jul-26 06:31N 43°24' W 003°07'0 0.1
2014-Jul-26 05:31N 43°24' W 003°07'0 0.1
2014-Jul-26 04:31N 43°24' W 003°07'0 0.0
2014-Jul-26 03:31N 43°24' W 003°07'0 0.0
2014-Jul-26 02:31N 43°24' W 003°07'0 0.0
2014-Jul-26 01:31N 43°24' W 003°07'0 0.2
2014-Jul-26 00:31N 43°24' W 003°07'0 0.3
2014-Jul-25 23:31N 43°24' W 003°07'3 3.1
2014-Jul-25 22:33N 43°27' W 003°08'1212.1
2014-Jul-25 21:33N 43°36' W 003°18'  
Track history (hours):
 
Tides and Currents Weather Stations Pressure Air Temp Water Temp Dewpoint Dewpoint Depression Visibility Wind Speed Wind Dir Waves Ship Positions

Genmar Spyridon

Last reported at 2014-Jul-31 16:12 UTC. Time now 2014-Aug-01 09:59 UTC.
Position N 37°31' W 001°01'.

Length 274 m; draft 11.2 m.

Type: Tanker. MMSI: 538001404.

Date/timePositionNaut miles runAvg speedWind from/ knotsBaromVisibWave heightAir tempDewpointWater temp
2014-Jul-31 16:12N 37°31' W 001°01'812.0
2014-Jul-31 15:33N 37°23' W 001°01'1312.9
2014-Jul-31 14:33N 37°10' W 001°03'1312.5
2014-Jul-31 13:30N 36°60' W 001°13'1613.5
2014-Jul-31 12:19N 36°49' W 001°29'1613.2
2014-Jul-31 11:08N 36°39' W 001°43'4612.5
2014-Jul-31 07:28N 36°19' W 002°35'13713.9
2014-Jul-30 21:33N 35°58' W 005°23'5914.6
2014-Jul-30 17:30N 35°57' W 006°36'1313.3
2014-Jul-30 16:33N 35°58' W 006°51'2713.2
2014-Jul-30 14:32N 36°01' W 007°24'1413.5
2014-Jul-30 13:30N 36°02' W 007°41'1313.6
2014-Jul-30 12:33N 36°06' W 007°56'1913.0
2014-Jul-30 11:05N 36°13' W 008°18'713.5
2014-Jul-30 10:33N 36°16' W 008°27'1313.1
2014-Jul-30 09:33N 36°20' W 008°42'1312.7
2014-Jul-30 08:33N 36°24' W 008°57'1313.1
2014-Jul-30 07:33N 36°28' W 009°12'1312.8
2014-Jul-30 06:33N 36°34' W 009°26'1413.6
2014-Jul-30 05:33N 36°45' W 009°37'1313.1
2014-Jul-30 04:33N 36°58' W 009°42'1313.4
2014-Jul-30 03:33N 37°11' W 009°45'1313.5
2014-Jul-30 02:33N 37°24' W 009°49'1313.3
2014-Jul-30 01:34N 37°37' W 009°53'1313.0
2014-Jul-30 00:33N 37°49' W 009°57'1312.9
2014-Jul-29 23:33N 38°02' W 010°00'1413.0
2014-Jul-29 22:27N 38°16' W 010°04'1213.3
2014-Jul-29 21:33N 38°28' W 010°08'4012.9
2014-Jul-29 18:27N 39°08' W 010°11'1313.0
2014-Jul-29 17:26N 39°21' W 010°12'402 9.0
2014-Jul-27 20:32N 43°33' W 003°14'1212.2
2014-Jul-27 19:33N 43°23' W 003°05'1 0.9
2014-Jul-27 18:33N 43°22' W 003°06'0 0.0
2014-Jul-27 17:33N 43°22' W 003°06'0 0.0
2014-Jul-27 16:33N 43°22' W 003°06'0 0.0
2014-Jul-27 15:33N 43°22' W 003°06'2 0.1
2014-Jul-26 10:33N 43°24' W 003°07'0 0.1
2014-Jul-26 09:33N 43°24' W 003°07'0 0.0
2014-Jul-26 08:31N 43°24' W 003°07'0 0.0
2014-Jul-26 07:31N 43°24' W 003°07'0 0.2
2014-Jul-26 06:31N 43°24' W 003°07'0 0.1
2014-Jul-26 05:31N 43°24' W 003°07'0 0.1
2014-Jul-26 04:31N 43°24' W 003°07'0 0.0
2014-Jul-26 03:31N 43°24' W 003°07'0 0.0
2014-Jul-26 02:31N 43°24' W 003°07'0 0.0
2014-Jul-26 01:31N 43°24' W 003°07'0 0.2
2014-Jul-26 00:31N 43°24' W 003°07'0 0.3
2014-Jul-25 23:31N 43°24' W 003°07'3 3.1
2014-Jul-25 22:33N 43°27' W 003°08'1212.1
2014-Jul-25 21:33N 43°36' W 003°18'  

Dump ship's entire track history